sensor_id;sensor_type;location;lat;lon;timestamp;pressure;altitude;pressure_sealevel;temperature;humidity
21863;BME280;11096;51.338;12.524;2023-05-10T00:02:07;99560.88;;;9.51;73.43
21863;BME280;11096;51.338;12.524;2023-05-10T00:04:32;99561.78;;;9.39;73.76
21863;BME280;11096;51.338;12.524;2023-05-10T00:06:58;99560.84;;;9.40;73.73
21863;BME280;11096;51.338;12.524;2023-05-10T00:09:23;99555.66;;;9.40;73.76
21863;BME280;11096;51.338;12.524;2023-05-10T00:11:49;99555.13;;;9.48;73.73
21863;BME280;11096;51.338;12.524;2023-05-10T00:14:14;99552.63;;;9.46;73.47
21863;BME280;11096;51.338;12.524;2023-05-10T00:16:40;99555.31;;;9.44;73.78
21863;BME280;11096;51.338;12.524;2023-05-10T00:19:05;99553.34;;;9.48;73.56
21863;BME280;11096;51.338;12.524;2023-05-10T00:21:31;99552.28;;;9.51;73.73
21863;BME280;11096;51.338;12.524;2023-05-10T00:23:57;99547.91;;;9.51;73.67
21863;BME280;11096;51.338;12.524;2023-05-10T00:26:22;99550.63;;;9.50;73.53
21863;BME280;11096;51.338;12.524;2023-05-10T00:28:48;99550.50;;;9.51;73.89
21863;BME280;11096;51.338;12.524;2023-05-10T00:31:13;99539.56;;;9.48;73.94
21863;BME280;11096;51.338;12.524;2023-05-10T00:33:39;99539.66;;;9.46;73.97
21863;BME280;11096;51.338;12.524;2023-05-10T00:36:05;99535.84;;;9.39;74.13
21863;BME280;11096;51.338;12.524;2023-05-10T00:38:33;99530.72;;;9.50;74.08
21863;BME280;11096;51.338;12.524;2023-05-10T00:40:58;99525.28;;;9.53;73.99
21863;BME280;11096;51.338;12.524;2023-05-10T00:43:23;99527.75;;;9.55;74.09
21863;BME280;11096;51.338;12.524;2023-05-10T00:45:49;99519.84;;;10.14;73.41
21863;BME280;11096;51.338;12.524;2023-05-10T00:48:15;99527.75;;;9.55;73.06
21863;BME280;11096;51.338;12.524;2023-05-10T00:50:40;99519.38;;;9.51;73.44
21863;BME280;11096;51.338;12.524;2023-05-10T00:53:06;99523.75;;;9.51;74.13
21863;BME280;11096;51.338;12.524;2023-05-10T00:55:31;99513.16;;;9.54;73.80
21863;BME280;11096;51.338;12.524;2023-05-10T00:57:57;99516.69;;;9.53;74.01
21863;BME280;11096;51.338;12.524;2023-05-10T01:00:22;99520.09;;;9.53;74.00
21863;BME280;11096;51.338;12.524;2023-05-10T01:02:48;99519.16;;;9.54;73.97
21863;BME280;11096;51.338;12.524;2023-05-10T01:05:14;99515.97;;;9.51;73.83
21863;BME280;11096;51.338;12.524;2023-05-10T01:07:40;99520.81;;;9.55;74.03
21863;BME280;11096;51.338;12.524;2023-05-10T01:10:07;99521.66;;;9.56;74.09
21863;BME280;11096;51.338;12.524;2023-05-10T01:12:35;99520.34;;;9.50;74.33
21863;BME280;11096;51.338;12.524;2023-05-10T01:15:02;99520.34;;;9.50;74.06
21863;BME280;11096;51.338;12.524;2023-05-10T01:17:28;99518.81;;;9.48;74.34
21863;BME280;11096;51.338;12.524;2023-05-10T01:19:53;99508.97;;;9.40;74.24
21863;BME280;11096;51.338;12.524;2023-05-10T01:25:18;99515.00;;;9.40;74.29
21863;BME280;11096;51.338;12.524;2023-05-10T01:38:47;99502.22;;;9.26;75.48
21863;BME280;11096;51.338;12.524;2023-05-10T01:41:29;99498.09;;;9.23;75.71
21863;BME280;11096;51.338;12.524;2023-05-10T01:46:44;99503.16;;;9.25;75.74
21863;BME280;11096;51.338;12.524;2023-05-10T01:49:23;99504.00;;;9.26;75.69
21863;BME280;11096;51.338;12.524;2023-05-10T01:51:51;99500.78;;;9.22;75.56
21863;BME280;11096;51.338;12.524;2023-05-10T01:54:20;99502.56;;;9.21;75.79
21863;BME280;11096;51.338;12.524;2023-05-10T01:56:56;99495.50;;;9.23;75.88
21863;BME280;11096;51.338;12.524;2023-05-10T01:59:28;99496.44;;;9.22;75.87
21863;BME280;11096;51.338;12.524;2023-05-10T02:01:57;99494.31;;;9.16;76.00
21863;BME280;11096;51.338;12.524;2023-05-10T02:04:24;99500.41;;;9.15;76.44
21863;BME280;11096;51.338;12.524;2023-05-10T02:06:51;99494.41;;;9.15;76.12
21863;BME280;11096;51.338;12.524;2023-05-10T02:09:19;99487.56;;;9.14;76.29
21863;BME280;11096;51.338;12.524;2023-05-10T02:11:47;99490.03;;;9.15;76.39
21863;BME280;11096;51.338;12.524;2023-05-10T02:14:15;99488.88;;;9.08;76.40
21863;BME280;11096;51.338;12.524;2023-05-10T02:16:42;99489.88;;;9.06;76.63
21863;BME280;11096;51.338;12.524;2023-05-10T02:19:09;99477.78;;;9.06;76.90
21863;BME280;11096;51.338;12.524;2023-05-10T02:21:37;99480.38;;;9.06;77.12
21863;BME280;11096;51.338;12.524;2023-05-10T02:24:04;99485.97;;;9.00;76.99
21863;BME280;11096;51.338;12.524;2023-05-10T02:26:31;99485.38;;;8.96;77.64
21863;BME280;11096;51.338;12.524;2023-05-10T02:28:58;99489.75;;;8.96;77.65
21863;BME280;11096;51.338;12.524;2023-05-10T02:31:25;99487.16;;;8.96;78.24
21863;BME280;11096;51.338;12.524;2023-05-10T02:33:51;99473.59;;;8.92;78.34
21863;BME280;11096;51.338;12.524;2023-05-10T02:36:20;99477.13;;;8.91;78.28
21863;BME280;11096;51.338;12.524;2023-05-10T02:38:46;99487.09;;;8.85;78.20
21863;BME280;11096;51.338;12.524;2023-05-10T02:41:12;99487.09;;;8.85;78.46
21863;BME280;11096;51.338;12.524;2023-05-10T02:43:39;99491.06;;;8.77;78.79
21863;BME280;11096;51.338;12.524;2023-05-10T02:46:05;99492.50;;;8.81;78.52
21863;BME280;11096;51.338;12.524;2023-05-10T02:48:31;99484.94;;;8.78;78.36
21863;BME280;11096;51.338;12.524;2023-05-10T02:51:01;99482.56;;;8.75;79.06
21863;BME280;11096;51.338;12.524;2023-05-10T02:53:36;99484.75;;;8.81;79.23
21863;BME280;11096;51.338;12.524;2023-05-10T02:56:16;99479.31;;;8.85;78.96
21863;BME280;11096;51.338;12.524;2023-05-10T02:58:45;99469.78;;;8.85;78.86
21863;BME280;11096;51.338;12.524;2023-05-10T03:01:11;99468.63;;;8.89;78.68
21863;BME280;11096;51.338;12.524;2023-05-10T03:03:36;99470.03;;;8.93;78.31
21863;BME280;11096;51.338;12.524;2023-05-10T03:06:02;99477.94;;;8.92;77.98
21863;BME280;11096;51.338;12.524;2023-05-10T03:08:27;99474.63;;;8.90;77.93
21863;BME280;11096;51.338;12.524;2023-05-10T03:11:07;99478.72;;;8.81;78.19
21863;BME280;11096;51.338;12.524;2023-05-10T03:16:25;99477.22;;;8.90;79.19
21863;BME280;11096;51.338;12.524;2023-05-10T03:19:02;99481.19;;;8.82;78.82
21863;BME280;11096;51.338;12.524;2023-05-10T03:21:31;99480.47;;;8.80;79.21
21863;BME280;11096;51.338;12.524;2023-05-10T03:24:08;99481.19;;;8.82;78.98
21863;BME280;11096;51.338;12.524;2023-05-10T03:26:34;99477.31;;;8.88;78.91
21863;BME280;11096;51.338;12.524;2023-05-10T03:29:02;99477.78;;;8.82;79.36
21863;BME280;11096;51.338;12.524;2023-05-10T03:31:29;99482.88;;;8.84;79.22
21863;BME280;11096;51.338;12.524;2023-05-10T03:33:55;99480.28;;;8.84;79.21
21863;BME280;11096;51.338;12.524;2023-05-10T03:36:20;99490.41;;;8.87;79.01
21863;BME280;11096;51.338;12.524;2023-05-10T03:38:46;99491.81;;;8.91;79.02
21863;BME280;11096;51.338;12.524;2023-05-10T03:41:11;99489.75;;;8.96;79.26
21863;BME280;11096;51.338;12.524;2023-05-10T03:43:36;99486.47;;;9.05;79.11
21863;BME280;11096;51.338;12.524;2023-05-10T03:46:03;99489.44;;;9.12;78.73
21863;BME280;11096;51.338;12.524;2023-05-10T03:48:30;99489.22;;;9.15;78.47
21863;BME280;11096;51.338;12.524;2023-05-10T03:50:55;99484.84;;;9.15;78.44
21863;BME280;11096;51.338;12.524;2023-05-10T03:53:20;99486.75;;;9.13;78.61
21863;BME280;11096;51.338;12.524;2023-05-10T03:55:46;99483.69;;;9.19;78.61
21863;BME280;11096;51.338;12.524;2023-05-10T03:58:11;99488.53;;;9.24;78.53
21863;BME280;11096;51.338;12.524;2023-05-10T04:00:37;99483.75;;;9.31;78.35
21863;BME280;11096;51.338;12.524;2023-05-10T04:03:08;99483.41;;;9.35;78.13
21863;BME280;11096;51.338;12.524;2023-05-10T04:05:34;99477.75;;;9.41;77.66
21863;BME280;11096;51.338;12.524;2023-05-10T04:08:00;99473.66;;;9.50;77.62
21863;BME280;11096;51.338;12.524;2023-05-10T04:10:25;99481.91;;;9.55;77.11
21863;BME280;11096;51.338;12.524;2023-05-10T04:12:50;99476.72;;;9.66;76.80
21863;BME280;11096;51.338;12.524;2023-05-10T04:15:16;99477.91;;;9.74;76.14
21863;BME280;11096;51.338;12.524;2023-05-10T04:17:41;99475.69;;;9.80;75.94
21863;BME280;11096;51.338;12.524;2023-05-10T04:20:07;99474.38;;;9.86;75.62
21863;BME280;11096;51.338;12.524;2023-05-10T04:22:33;99479.69;;;9.96;75.20
21863;BME280;11096;51.338;12.524;2023-05-10T04:24:59;99477.09;;;10.07;74.63
21863;BME280;11096;51.338;12.524;2023-05-10T04:27:24;99470.97;;;10.19;73.87
21863;BME280;11096;51.338;12.524;2023-05-10T04:29:49;99469.91;;;10.22;73.65
21863;BME280;11096;51.338;12.524;2023-05-10T04:32:15;99476.88;;;10.32;73.60
21863;BME280;11096;51.338;12.524;2023-05-10T04:34:42;99480.38;;;10.43;73.26
21863;BME280;11096;51.338;12.524;2023-05-10T04:37:08;99474.81;;;10.59;72.62
21863;BME280;11096;51.338;12.524;2023-05-10T04:39:33;99475.47;;;10.72;72.16
21863;BME280;11096;51.338;12.524;2023-05-10T04:42:00;99471.78;;;10.86;71.89
21863;BME280;11096;51.338;12.524;2023-05-10T04:44:26;99475.03;;;10.99;71.24
21863;BME280;11096;51.338;12.524;2023-05-10T04:46:51;99475.00;;;11.10;70.76
21863;BME280;11096;51.338;12.524;2023-05-10T04:49:16;99472.38;;;11.31;70.58
21863;BME280;11096;51.338;12.524;2023-05-10T04:51:42;99472.63;;;11.49;69.00
21863;BME280;11096;51.338;12.524;2023-05-10T04:54:08;99473.75;;;11.56;68.39
21863;BME280;11096;51.338;12.524;2023-05-10T04:56:34;99479.94;;;11.76;67.32
21863;BME280;11096;51.338;12.524;2023-05-10T04:58:59;99478.69;;;11.80;66.94
21863;BME280;11096;51.338;12.524;2023-05-10T05:01:25;99476.78;;;12.03;66.53
21863;BME280;11096;51.338;12.524;2023-05-10T05:03:50;99481.75;;;12.16;65.58
21863;BME280;11096;51.338;12.524;2023-05-10T05:06:17;99481.91;;;12.24;65.05
21863;BME280;11096;51.338;12.524;2023-05-10T05:08:43;99483.19;;;12.40;64.79
21863;BME280;11096;51.338;12.524;2023-05-10T05:11:08;99483.88;;;12.42;64.57
21863;BME280;11096;51.338;12.524;2023-05-10T05:13:34;99479.53;;;12.62;64.52
21863;BME280;11096;51.338;12.524;2023-05-10T05:16:01;99492.19;;;12.86;63.33
21863;BME280;11096;51.338;12.524;2023-05-10T05:18:27;99488.75;;;12.95;62.97
21863;BME280;11096;51.338;12.524;2023-05-10T05:20:53;99488.75;;;12.95;62.61
21863;BME280;11096;51.338;12.524;2023-05-10T05:23:18;99488.75;;;13.15;62.15
21863;BME280;11096;51.338;12.524;2023-05-10T05:25:46;99486.41;;;13.11;62.13
21863;BME280;11096;51.338;12.524;2023-05-10T05:28:11;99486.41;;;13.11;61.56
21863;BME280;11096;51.338;12.524;2023-05-10T05:30:36;99483.09;;;13.48;61.12
21863;BME280;11096;51.338;12.524;2023-05-10T05:33:02;99479.66;;;13.48;60.36
21863;BME280;11096;51.338;12.524;2023-05-10T05:35:27;99479.13;;;13.91;60.02
21863;BME280;11096;51.338;12.524;2023-05-10T05:37:53;99480.97;;;13.81;59.88
21863;BME280;11096;51.338;12.524;2023-05-10T05:40:18;99484.91;;;13.85;59.17
21863;BME280;11096;51.338;12.524;2023-05-10T05:42:45;99478.31;;;13.91;59.06
21863;BME280;11096;51.338;12.524;2023-05-10T05:45:10;99473.41;;;14.15;58.99
21863;BME280;11096;51.338;12.524;2023-05-10T05:47:38;99467.06;;;14.18;58.75
21863;BME280;11096;51.338;12.524;2023-05-10T05:50:05;99471.94;;;14.31;58.33
21863;BME280;11096;51.338;12.524;2023-05-10T05:52:30;99475.38;;;14.59;57.62
21863;BME280;11096;51.338;12.524;2023-05-10T05:54:56;99482.56;;;14.75;57.43
21863;BME280;11096;51.338;12.524;2023-05-10T05:57:21;99491.16;;;14.85;57.26
21863;BME280;11096;51.338;12.524;2023-05-10T05:59:47;99485.94;;;14.85;56.68
21863;BME280;11096;51.338;12.524;2023-05-10T06:02:12;99480.88;;;15.01;56.75
21863;BME280;11096;51.338;12.524;2023-05-10T06:04:38;99485.34;;;15.09;57.10
21863;BME280;11096;51.338;12.524;2023-05-10T06:07:03;99483.97;;;15.23;56.56
21863;BME280;11096;51.338;12.524;2023-05-10T06:09:29;99489.09;;;15.33;55.94
21863;BME280;11096;51.338;12.524;2023-05-10T06:11:54;99502.72;;;15.36;56.15
21863;BME280;11096;51.338;12.524;2023-05-10T06:14:22;99499.16;;;15.63;55.94
21863;BME280;11096;51.338;12.524;2023-05-10T06:16:48;99496.84;;;15.60;55.55
21863;BME280;11096;51.338;12.524;2023-05-10T06:19:13;99493.13;;;15.97;55.15
21863;BME280;11096;51.338;12.524;2023-05-10T06:21:39;99495.00;;;16.05;55.56
21863;BME280;11096;51.338;12.524;2023-05-10T06:24:05;99497.72;;;15.95;55.09
21863;BME280;11096;51.338;12.524;2023-05-10T06:26:31;99498.41;;;15.71;55.17
21863;BME280;11096;51.338;12.524;2023-05-10T06:28:57;99501.41;;;15.58;54.95
21863;BME280;11096;51.338;12.524;2023-05-10T06:31:22;99507.09;;;15.72;55.46
21863;BME280;11096;51.338;12.524;2023-05-10T06:33:48;99509.47;;;15.83;56.48
21863;BME280;11096;51.338;12.524;2023-05-10T06:36:13;99511.38;;;15.73;57.09
21863;BME280;11096;51.338;12.524;2023-05-10T06:38:39;99502.84;;;15.71;56.84
21863;BME280;11096;51.338;12.524;2023-05-10T06:41:04;99503.56;;;15.81;56.54
21863;BME280;11096;51.338;12.524;2023-05-10T06:43:30;99512.47;;;15.96;57.42
21863;BME280;11096;51.338;12.524;2023-05-10T06:45:56;99507.38;;;15.95;56.22
21863;BME280;11096;51.338;12.524;2023-05-10T06:48:21;99513.25;;;15.88;56.50
21863;BME280;11096;51.338;12.524;2023-05-10T06:50:47;99504.84;;;15.85;57.00
21863;BME280;11096;51.338;12.524;2023-05-10T06:53:12;99508.81;;;15.89;57.66
21863;BME280;11096;51.338;12.524;2023-05-10T06:55:38;99513.88;;;16.17;57.22
21863;BME280;11096;51.338;12.524;2023-05-10T06:58:04;99520.00;;;16.34;56.30
21863;BME280;11096;51.338;12.524;2023-05-10T07:00:30;99520.06;;;16.42;55.96
21863;BME280;11096;51.338;12.524;2023-05-10T07:02:55;99521.94;;;16.74;55.94
21863;BME280;11096;51.338;12.524;2023-05-10T07:05:21;99520.06;;;17.09;55.09
21863;BME280;11096;51.338;12.524;2023-05-10T07:07:47;99519.06;;;17.67;54.37
21863;BME280;11096;51.338;12.524;2023-05-10T07:10:12;99518.66;;;19.05;51.89
21863;BME280;11096;51.338;12.524;2023-05-10T07:12:38;99519.47;;;21.56;45.58
21863;BME280;11096;51.338;12.524;2023-05-10T07:15:04;99524.44;;;19.99;46.91
21863;BME280;11096;51.338;12.524;2023-05-10T07:17:30;99522.63;;;19.24;47.70
21863;BME280;11096;51.338;12.524;2023-05-10T07:19:55;99523.53;;;18.93;48.43
21863;BME280;11096;51.338;12.524;2023-05-10T07:22:21;99527.44;;;18.97;49.04
21863;BME280;11096;51.338;12.524;2023-05-10T07:24:46;99527.69;;;19.11;49.28
21863;BME280;11096;51.338;12.524;2023-05-10T07:27:12;99527.50;;;19.12;49.19
21863;BME280;11096;51.338;12.524;2023-05-10T07:29:38;99529.31;;;19.35;48.44
21863;BME280;11096;51.338;12.524;2023-05-10T07:32:04;99533.56;;;20.99;46.74
21863;BME280;11096;51.338;12.524;2023-05-10T07:34:29;99534.69;;;21.33;45.02
21863;BME280;11096;51.338;12.524;2023-05-10T07:36:57;99526.03;;;20.45;46.98
21863;BME280;11096;51.338;12.524;2023-05-10T07:39:23;99526.25;;;20.28;47.21
21863;BME280;11096;51.338;12.524;2023-05-10T07:41:48;99531.50;;;19.69;47.85
21863;BME280;11096;51.338;12.524;2023-05-10T07:44:14;99534.31;;;19.67;46.89
21863;BME280;11096;51.338;12.524;2023-05-10T07:46:40;99532.56;;;19.60;47.80
21863;BME280;11096;51.338;12.524;2023-05-10T07:49:05;99533.66;;;19.65;48.18
21863;BME280;11096;51.338;12.524;2023-05-10T07:51:30;99534.66;;;19.64;48.34
21863;BME280;11096;51.338;12.524;2023-05-10T07:53:56;99530.13;;;20.47;47.77
21863;BME280;11096;51.338;12.524;2023-05-10T07:56:25;99535.47;;;21.05;46.35
21863;BME280;11096;51.338;12.524;2023-05-10T07:58:52;99535.47;;;22.53;42.39
21863;BME280;11096;51.338;12.524;2023-05-10T08:01:18;99547.19;;;21.39;45.41
21863;BME280;11096;51.338;12.524;2023-05-10T08:03:43;99543.25;;;21.56;45.75
21863;BME280;11096;51.338;12.524;2023-05-10T08:06:09;99544.03;;;21.78;44.67
21863;BME280;11096;51.338;12.524;2023-05-10T08:08:34;99541.16;;;21.09;46.22
21863;BME280;11096;51.338;12.524;2023-05-10T08:10:59;99545.94;;;20.47;47.47
21863;BME280;11096;51.338;12.524;2023-05-10T08:13:25;99555.44;;;20.56;47.41
21863;BME280;11096;51.338;12.524;2023-05-10T08:15:50;99554.41;;;20.43;48.59
21863;BME280;11096;51.338;12.524;2023-05-10T08:18:18;99555.44;;;19.82;49.31
21863;BME280;11096;51.338;12.524;2023-05-10T08:20:43;99558.19;;;19.66;48.99
21863;BME280;11096;51.338;12.524;2023-05-10T08:23:09;99552.25;;;19.64;50.69
21863;BME280;11096;51.338;12.524;2023-05-10T08:25:34;99563.34;;;18.90;51.36
21863;BME280;11096;51.338;12.524;2023-05-10T08:28:00;99568.28;;;18.06;53.26
21863;BME280;11096;51.338;12.524;2023-05-10T08:30:25;99572.84;;;18.20;53.63
21863;BME280;11096;51.338;12.524;2023-05-10T08:32:51;99580.66;;;17.65;55.06
21863;BME280;11096;51.338;12.524;2023-05-10T08:35:16;99583.59;;;17.94;55.83
21863;BME280;11096;51.338;12.524;2023-05-10T08:37:41;99592.63;;;17.84;56.38
21863;BME280;11096;51.338;12.524;2023-05-10T08:40:08;99594.09;;;17.37;57.57
21863;BME280;11096;51.338;12.524;2023-05-10T08:42:39;99601.38;;;16.84;58.59
21863;BME280;11096;51.338;12.524;2023-05-10T08:45:07;99606.69;;;17.17;58.99
21863;BME280;11096;51.338;12.524;2023-05-10T08:47:35;99610.81;;;17.11;59.16
21863;BME280;11096;51.338;12.524;2023-05-10T08:50:02;99611.53;;;16.79;59.16
21863;BME280;11096;51.338;12.524;2023-05-10T08:52:30;99617.03;;;16.68;60.44
21863;BME280;11096;51.338;12.524;2023-05-10T08:54:56;99617.25;;;16.48;61.57
21863;BME280;11096;51.338;12.524;2023-05-10T08:57:21;99625.06;;;16.66;62.37
21863;BME280;11096;51.338;12.524;2023-05-10T08:59:47;99631.38;;;16.47;62.53
21863;BME280;11096;51.338;12.524;2023-05-10T09:02:13;99618.25;;;16.47;63.20
21863;BME280;11096;51.338;12.524;2023-05-10T09:04:39;99631.91;;;16.25;63.92
21863;BME280;11096;51.338;12.524;2023-05-10T09:07:06;99629.16;;;16.08;64.76
21863;BME280;11096;51.338;12.524;2023-05-10T09:09:32;99635.44;;;16.16;65.51
21863;BME280;11096;51.338;12.524;2023-05-10T09:11:57;99633.63;;;16.42;64.88
21863;BME280;11096;51.338;12.524;2023-05-10T09:14:23;99636.41;;;16.41;64.56
21863;BME280;11096;51.338;12.524;2023-05-10T09:16:49;99641.38;;;16.52;64.64
21863;BME280;11096;51.338;12.524;2023-05-10T09:19:15;99646.28;;;16.47;64.60
21863;BME280;11096;51.338;12.524;2023-05-10T09:21:41;99657.81;;;16.28;66.57
21863;BME280;11096;51.338;12.524;2023-05-10T09:24:07;99654.25;;;16.11;66.49
21863;BME280;11096;51.338;12.524;2023-05-10T09:26:33;99661.53;;;15.99;67.54
21863;BME280;11096;51.338;12.524;2023-05-10T09:29:01;99654.50;;;15.64;68.90
21863;BME280;11096;51.338;12.524;2023-05-10T09:31:51;99662.50;;;15.62;69.35
21863;BME280;11096;51.338;12.524;2023-05-10T09:34:22;99666.31;;;15.50;70.00
21863;BME280;11096;51.338;12.524;2023-05-10T09:36:54;99665.66;;;15.48;71.33
21863;BME280;11096;51.338;12.524;2023-05-10T09:39:20;99672.69;;;15.65;72.20
21863;BME280;11096;51.338;12.524;2023-05-10T09:41:46;99667.81;;;15.35;72.84
21863;BME280;11096;51.338;12.524;2023-05-10T09:44:16;99682.94;;;15.13;73.42
21863;BME280;11096;51.338;12.524;2023-05-10T09:46:42;99681.19;;;15.32;74.55
21863;BME280;11096;51.338;12.524;2023-05-10T09:49:08;99689.13;;;14.94;77.30
21863;BME280;11096;51.338;12.524;2023-05-10T09:51:34;99688.94;;;14.68;79.01
21863;BME280;11096;51.338;12.524;2023-05-10T09:54:10;99696.00;;;14.38;84.75
21863;BME280;11096;51.338;12.524;2023-05-10T09:56:36;99693.69;;;14.55;86.22
21863;BME280;11096;51.338;12.524;2023-05-10T09:59:05;99685.53;;;14.58;88.06
21863;BME280;11096;51.338;12.524;2023-05-10T10:01:31;99690.91;;;14.47;91.52
21863;BME280;11096;51.338;12.524;2023-05-10T10:03:56;99699.22;;;14.32;97.65
21863;BME280;11096;51.338;12.524;2023-05-10T10:06:23;99700.34;;;14.01;100.00
21863;BME280;11096;51.338;12.524;2023-05-10T10:08:50;99701.16;;;13.91;100.00
21863;BME280;11096;51.338;12.524;2023-05-10T10:11:15;99702.81;;;13.92;100.00
21863;BME280;11096;51.338;12.524;2023-05-10T10:13:41;99706.50;;;13.80;100.00
21863;BME280;11096;51.338;12.524;2023-05-10T10:16:08;99705.56;;;13.62;100.00
21863;BME280;11096;51.338;12.524;2023-05-10T10:18:36;99706.50;;;14.29;100.00
21863;BME280;11096;51.338;12.524;2023-05-10T10:21:08;99697.88;;;13.89;100.00
21863;BME280;11096;51.338;12.524;2023-05-10T10:23:36;99704.75;;;13.71;100.00
21863;BME280;11096;51.338;12.524;2023-05-10T10:26:03;99708.81;;;13.44;100.00
21863;BME280;11096;51.338;12.524;2023-05-10T10:29:00;99704.47;;;13.64;100.00
21863;BME280;11096;51.338;12.524;2023-05-10T10:31:47;99699.66;;;13.89;100.00
21863;BME280;11096;51.338;12.524;2023-05-10T10:34:29;99701.28;;;14.00;100.00
21863;BME280;11096;51.338;12.524;2023-05-10T10:36:56;99706.88;;;14.34;100.00
21863;BME280;11096;51.338;12.524;2023-05-10T10:39:23;99711.91;;;13.88;100.00
21863;BME280;11096;51.338;12.524;2023-05-10T10:41:54;99713.06;;;14.43;100.00
21863;BME280;11096;51.338;12.524;2023-05-10T10:49:32;99709.88;;;15.51;100.00
21863;BME280;11096;51.338;12.524;2023-05-10T10:54:39;99714.59;;;15.20;100.00
21863;BME280;11096;51.338;12.524;2023-05-10T10:57:12;99721.47;;;14.36;100.00
21863;BME280;11096;51.338;12.524;2023-05-10T10:59:44;99720.66;;;14.36;100.00
21863;BME280;11096;51.338;12.524;2023-05-10T11:02:17;99734.81;;;15.00;100.00
21863;BME280;11096;51.338;12.524;2023-05-10T11:04:55;99725.56;;;14.58;100.00
21863;BME280;11096;51.338;12.524;2023-05-10T11:07:21;99728.50;;;14.26;100.00
21863;BME280;11096;51.338;12.524;2023-05-10T11:09:49;99733.03;;;14.14;100.00
21863;BME280;11096;51.338;12.524;2023-05-10T11:12:15;99738.28;;;14.91;100.00
21863;BME280;11096;51.338;12.524;2023-05-10T11:14:40;99734.00;;;14.99;100.00
21863;BME280;11096;51.338;12.524;2023-05-10T11:17:26;99721.25;;;15.14;100.00
21863;BME280;11096;51.338;12.524;2023-05-10T11:20:08;99737.38;;;14.72;100.00
21863;BME280;11096;51.338;12.524;2023-05-10T11:22:53;99737.13;;;14.46;100.00
21863;BME280;11096;51.338;12.524;2023-05-10T11:25:19;99739.00;;;14.83;100.00
21863;BME280;11096;51.338;12.524;2023-05-10T11:27:47;99737.50;;;14.80;100.00
21863;BME280;11096;51.338;12.524;2023-05-10T11:30:14;99734.56;;;14.93;100.00
21863;BME280;11096;51.338;12.524;2023-05-10T11:32:40;99731.56;;;14.78;100.00
21863;BME280;11096;51.338;12.524;2023-05-10T11:35:10;99739.81;;;14.84;100.00
21863;BME280;11096;51.338;12.524;2023-05-10T11:37:36;99740.09;;;14.80;100.00
21863;BME280;11096;51.338;12.524;2023-05-10T11:40:02;99740.09;;;14.80;100.00
21863;BME280;11096;51.338;12.524;2023-05-10T11:42:28;99739.41;;;14.78;100.00
21863;BME280;11096;51.338;12.524;2023-05-10T11:44:54;99741.47;;;14.85;100.00
21863;BME280;11096;51.338;12.524;2023-05-10T11:47:20;99749.13;;;14.96;100.00
21863;BME280;11096;51.338;12.524;2023-05-10T11:49:46;99754.75;;;14.64;100.00
21863;BME280;11096;51.338;12.524;2023-05-10T11:52:12;99751.44;;;14.62;100.00
21863;BME280;11096;51.338;12.524;2023-05-10T11:54:37;99757.50;;;14.72;100.00
21863;BME280;11096;51.338;12.524;2023-05-10T11:57:03;99750.59;;;14.71;100.00
21863;BME280;11096;51.338;12.524;2023-05-10T11:59:28;99752.94;;;14.64;100.00
21863;BME280;11096;51.338;12.524;2023-05-10T12:01:54;99755.13;;;14.69;100.00
21863;BME280;11096;51.338;12.524;2023-05-10T12:04:20;99760.78;;;14.64;100.00
21863;BME280;11096;51.338;12.524;2023-05-10T12:06:46;99752.94;;;14.45;100.00
21863;BME280;11096;51.338;12.524;2023-05-10T12:09:11;99756.41;;;14.45;100.00
21863;BME280;11096;51.338;12.524;2023-05-10T12:11:40;99757.66;;;14.31;100.00
21863;BME280;11096;51.338;12.524;2023-05-10T12:14:06;99762.59;;;14.34;100.00
21863;BME280;11096;51.338;12.524;2023-05-10T12:16:33;99756.94;;;14.68;100.00
21863;BME280;11096;51.338;12.524;2023-05-10T12:19:00;99763.28;;;14.56;100.00
21863;BME280;11096;51.338;12.524;2023-05-10T12:21:27;99763.88;;;14.30;100.00
21863;BME280;11096;51.338;12.524;2023-05-10T12:23:54;99768.22;;;14.49;100.00
21863;BME280;11096;51.338;12.524;2023-05-10T12:26:23;99766.03;;;14.45;100.00
21863;BME280;11096;51.338;12.524;2023-05-10T12:28:49;99772.22;;;14.44;100.00
21863;BME280;11096;51.338;12.524;2023-05-10T12:31:15;99772.22;;;14.44;100.00
21863;BME280;11096;51.338;12.524;2023-05-10T12:33:44;99772.25;;;14.53;100.00
21863;BME280;11096;51.338;12.524;2023-05-10T12:36:11;99780.06;;;14.63;100.00
21863;BME280;11096;51.338;12.524;2023-05-10T12:38:39;99771.00;;;14.67;100.00
21863;BME280;11096;51.338;12.524;2023-05-10T12:41:09;99769.47;;;14.74;100.00
21863;BME280;11096;51.338;12.524;2023-05-10T12:43:36;99778.09;;;14.85;100.00
21863;BME280;11096;51.338;12.524;2023-05-10T12:48:31;99772.59;;;14.78;100.00
21863;BME280;11096;51.338;12.524;2023-05-10T12:50:56;99778.22;;;14.93;100.00
21863;BME280;11096;51.338;12.524;2023-05-10T12:53:22;99777.00;;;14.87;100.00
21863;BME280;11096;51.338;12.524;2023-05-10T12:55:48;99782.06;;;14.89;100.00
21863;BME280;11096;51.338;12.524;2023-05-10T12:58:14;99784.09;;;15.05;100.00
21863;BME280;11096;51.338;12.524;2023-05-10T13:00:39;99780.06;;;15.10;100.00
21863;BME280;11096;51.338;12.524;2023-05-10T13:03:05;99781.53;;;15.22;100.00
21863;BME280;11096;51.338;12.524;2023-05-10T13:05:34;99780.72;;;15.22;100.00
21863;BME280;11096;51.338;12.524;2023-05-10T13:08:00;99785.28;;;15.20;100.00
21863;BME280;11096;51.338;12.524;2023-05-10T13:10:26;99786.59;;;15.34;100.00
21863;BME280;11096;51.338;12.524;2023-05-10T13:12:51;99778.28;;;15.48;100.00
21863;BME280;11096;51.338;12.524;2023-05-10T13:15:17;99780.97;;;15.29;100.00
21863;BME280;11096;51.338;12.524;2023-05-10T13:17:42;99769.03;;;15.44;100.00
21863;BME280;11096;51.338;12.524;2023-05-10T13:20:08;99777.53;;;15.56;100.00